Time;durP1;ratioP1;P1;durP2;ratioP2;P2;SDS_P1;SDS_P2;PMS_P1;PMS_P2;Temp;Humidity;BMP_temperature;BMP_pressure;BME280_temperature;BME280_humidity;BME280_pressure;Samples;Min_cycle;Max_cycle;Signal;HPM_P1;HPM_P2
2022/12/19 00:00:23;;;;;;;87.70;25.80;;;;;;;-6.42;100.00;96849.13;1031186;28;20030;-71
2022/12/19 00:01:33;;;;;;;81.97;24.97;;;;;;;-6.61;100.00;96838.84;1030472;28;20072;-71
2022/12/19 00:02:04;;;;;;;80.97;23.90;;;;;;;-6.51;100.00;96844.00;1024000;28;20062;-72
2022/12/19 00:02:34;;;;;;;91.90;25.20;;;;;;;-6.55;100.00;96846.00;1027993;28;20523;-71
2022/12/19 00:03:05;;;;;;;93.23;25.07;;;;;;;-6.45;100.00;96853.69;1030835;28;20037;-70
2022/12/19 00:03:35;;;;;;;87.27;25.80;;;;;;;-6.46;100.00;96847.78;1022649;29;20046;-70
2022/12/19 00:04:07;;;;;;;74.60;22.47;;;;;;;-6.51;100.00;96844.78;1018626;29;20023;-71
2022/12/19 00:04:37;;;;;;;86.72;24.17;;;;;;;-6.54;100.00;96842.53;1023058;28;20572;-72
2022/12/19 00:05:08;;;;;;;92.57;25.77;;;;;;;-6.54;100.00;96845.06;1022999;28;20027;-70
2022/12/19 00:05:38;;;;;;;82.90;24.67;;;;;;;-6.57;100.00;96839.38;1027054;28;20478;-71
2022/12/19 00:06:09;;;;;;;79.03;23.60;;;;;;;-6.59;100.00;96829.31;1030837;28;20051;-70
2022/12/19 00:06:39;;;;;;;90.10;27.40;;;;;;;-6.62;100.00;96827.03;1034650;28;20045;-70
2022/12/19 00:07:10;;;;;;;86.13;24.80;;;;;;;-6.63;100.00;96819.50;1034472;28;20057;-71
2022/12/19 00:07:40;;;;;;;86.20;24.70;;;;;;;-6.65;100.00;96817.88;1034678;28;20100;-71
2022/12/19 00:08:15;;;;;;;91.03;26.40;;;;;;;-6.65;100.00;96806.88;1030329;28;20110;-70
2022/12/19 00:08:48;;;;;;;84.15;23.70;;;;;;;-6.63;100.00;96810.09;1027503;28;20491;-71
2022/12/19 00:09:18;;;;;;;84.82;25.95;;;;;;;-6.64;100.00;96808.47;1030688;28;20033;-71
2022/12/19 00:09:49;;;;;;;85.23;25.50;;;;;;;-6.61;100.00;96808.22;1035589;28;20037;-70
2022/12/19 00:10:19;;;;;;;85.90;25.57;;;;;;;-6.63;100.00;96805.00;1034234;28;20034;-71
2022/12/19 00:10:57;;;;;;;84.80;25.33;;;;;;;-6.63;100.00;96805.00;1034591;28;20040;-71
2022/12/19 00:11:27;;;;;;;78.47;23.80;;;;;;;-6.66;100.00;96800.16;1031563;28;20046;-71
2022/12/19 00:11:58;;;;;;;80.73;23.60;;;;;;;-6.67;100.00;96799.34;1035153;28;20037;-69
2022/12/19 00:12:28;;;;;;;84.80;22.90;;;;;;;-6.67;100.00;96803.66;1030781;28;20031;-71
2022/12/19 00:12:59;;;;;;;81.93;25.73;;;;;;;-6.68;100.00;96804.56;1030598;28;20054;-70
2022/12/19 00:13:30;;;;;;;92.07;26.47;;;;;;;-6.67;100.00;96811.31;1034796;28;20443;-71
2022/12/19 00:14:00;;;;;;;76.57;25.10;;;;;;;-6.69;100.00;96808.06;1030927;28;20030;-71
2022/12/19 00:14:31;;;;;;;78.73;24.53;;;;;;;-6.87;100.00;96787.47;1030763;28;20103;-71
2022/12/19 00:15:01;;;;;;;92.20;24.53;;;;;;;-6.73;100.00;96807.50;1030787;28;20730;-72
2022/12/19 00:15:35;;;;;;;83.33;23.27;;;;;;;-6.73;100.00;96809.25;1026081;28;20034;-71
2022/12/19 00:16:13;;;;;;;94.57;25.33;;;;;;;-6.77;100.00;96797.69;1022699;29;20543;-69
2022/12/19 00:16:44;;;;;;;87.60;25.58;;;;;;;-6.73;100.00;96799.06;1026917;28;20023;-70
2022/12/19 00:17:14;;;;;;;78.13;23.77;;;;;;;-6.69;100.00;96796.09;1022507;29;20035;-70
2022/12/19 00:17:44;;;;;;;75.20;25.07;;;;;;;-6.70;100.00;96791.94;1027479;28;20027;-72
2022/12/19 00:18:15;;;;;;;83.93;23.20;;;;;;;-6.76;100.00;96786.56;1026849;28;20694;-70
2022/12/19 00:18:46;;;;;;;90.57;25.77;;;;;;;-6.74;100.00;96782.94;1022604;28;20031;-69
2022/12/19 00:19:16;;;;;;;87.63;24.20;;;;;;;-6.68;100.00;96796.91;1026769;28;20034;-72
2022/12/19 00:19:47;;;;;;;89.87;25.50;;;;;;;-6.66;100.00;96800.16;1026600;28;20031;-70
2022/12/19 00:20:17;;;;;;;86.77;24.97;;;;;;;-6.61;100.00;96799.75;1030721;28;20038;-70
2022/12/19 00:20:58;;;;;;;83.60;24.33;;;;;;;-6.65;100.00;96801.75;1026847;28;20598;-70
2022/12/19 00:21:30;;;;;;;80.03;24.60;;;;;;;-6.60;100.00;96809.84;1030064;28;20077;-70
2022/12/19 00:22:01;;;;;;;81.80;25.48;;;;;;;-6.59;100.00;96819.13;1031111;28;20125;-71
2022/12/19 00:22:31;;;;;;;77.93;23.87;;;;;;;-6.64;100.00;96808.47;1036463;28;20029;-71
2022/12/19 00:23:01;;;;;;;82.10;22.60;;;;;;;-6.60;100.00;96820.06;1030326;28;20027;-71
2022/12/19 00:23:32;;;;;;;73.93;22.67;;;;;;;-6.62;100.00;96813.47;1027006;28;20037;-71
2022/12/19 00:24:04;;;;;;;81.00;26.27;;;;;;;-6.68;100.00;96812.22;1022998;28;20081;-71
2022/12/19 00:24:35;;;;;;;76.93;24.20;;;;;;;-6.68;100.00;96825.78;1026880;28;20034;-71
2022/12/19 00:25:06;;;;;;;84.50;24.33;;;;;;;-6.67;100.00;96826.63;1026821;28;20045;-70
2022/12/19 00:25:36;;;;;;;72.87;23.27;;;;;;;-6.67;100.00;96827.44;1026498;28;20105;-72
2022/12/19 00:26:12;;;;;;;75.67;23.17;;;;;;;-6.69;100.00;96825.94;1032187;28;20034;-70
2022/12/19 00:26:43;;;;;;;84.70;25.40;;;;;;;-6.72;100.00;96821.06;1035567;28;20029;-71
2022/12/19 00:27:13;;;;;;;78.47;24.77;;;;;;;-6.70;100.00;96825.13;1039615;28;20390;-70
2022/12/19 00:27:44;;;;;;;77.97;23.63;;;;;;;-6.70;100.00;96819.22;1037842;28;20407;-69
2022/12/19 00:28:14;;;;;;;85.00;25.00;;;;;;;-6.70;100.00;96821.78;1034695;28;20021;-71
2022/12/19 00:28:47;;;;;;;84.93;26.07;;;;;;;-6.72;100.00;96819.34;1034881;28;20092;-72
2022/12/19 00:29:17;;;;;;;77.35;25.25;;;;;;;-6.68;100.00;96832.63;1034820;28;20557;-71
2022/12/19 00:29:48;;;;;;;73.80;23.53;;;;;;;-6.65;100.00;96827.28;1034425;28;20065;-70
2022/12/19 00:30:18;;;;;;;76.63;23.00;;;;;;;-6.63;100.00;96830.53;1031050;28;20097;-71
2022/12/19 00:30:49;;;;;;;82.67;24.17;;;;;;;-6.70;100.00;96820.03;1026941;28;20507;-71
2022/12/19 00:31:19;;;;;;;85.07;26.07;;;;;;;-6.65;100.00;96814.53;1034748;28;20013;-71
2022/12/19 00:31:50;;;;;;;80.13;25.23;;;;;;;-6.67;100.00;96814.66;1034920;28;20093;-70
2022/12/19 00:32:20;;;;;;;74.87;23.20;;;;;;;-6.64;100.00;96818.69;1039045;28;20088;-71
2022/12/19 00:32:51;;;;;;;77.77;23.43;;;;;;;-6.61;100.00;96823.53;1038542;28;20950;-71
2022/12/19 00:33:21;;;;;;;81.33;24.40;;;;;;;-6.63;100.00;96812.66;1030682;28;20018;-69
2022/12/19 00:33:52;;;;;;;73.90;22.63;;;;;;;-6.64;100.00;96813.56;1034595;28;20021;-71
2022/12/19 00:34:22;;;;;;;77.17;23.93;;;;;;;-6.60;100.00;96812.41;1031080;28;20464;-71
2022/12/19 00:34:53;;;;;;;73.80;22.87;;;;;;;-6.60;100.00;96817.50;1026525;28;20011;-69
2022/12/19 00:35:23;;;;;;;83.23;26.30;;;;;;;-6.60;100.00;96809.84;1030715;28;20018;-71
2022/12/19 00:35:58;;;;;;;81.53;24.70;;;;;;;-6.58;100.00;96812.25;1030322;28;20022;-70
2022/12/19 00:36:30;;;;;;;77.45;22.65;;;;;;;-6.66;100.00;96813.72;1023621;28;20155;-71
2022/12/19 00:37:01;;;;;;;78.32;22.92;;;;;;;-6.69;100.00;96810.63;1029034;28;20080;-72
2022/12/19 00:37:31;;;;;;;72.10;22.97;;;;;;;-6.63;100.00;96810.09;1030466;28;20085;-71
2022/12/19 00:38:02;;;;;;;84.67;25.13;;;;;;;-6.65;100.00;96806.88;1030559;28;20082;-70
2022/12/19 00:38:33;;;;;;;70.82;22.98;;;;;;;-6.67;100.00;96806.22;1030577;28;20512;-70
2022/12/19 00:39:04;;;;;;;64.83;21.80;;;;;;;-6.69;100.00;96811.41;1026720;28;20039;-71
2022/12/19 00:39:34;;;;;;;79.55;23.70;;;;;;;-6.66;100.00;96812.91;1019092;29;20152;-71
2022/12/19 00:40:05;;;;;;;81.47;25.40;;;;;;;-6.64;100.00;96823.78;1026530;28;20096;-70
2022/12/19 00:40:36;;;;;;;76.68;25.60;;;;;;;-6.67;100.00;96819.78;1020843;29;20035;-71
2022/12/19 00:41:20;;;;;;;75.37;24.57;;;;;;;-6.69;100.00;96805.50;1022721;29;20023;-72
2022/12/19 00:41:50;;;;;;;74.03;23.45;;;;;;;-6.67;100.00;96808.75;1020251;28;20024;-70
2022/12/19 00:42:21;;;;;;;68.27;21.57;;;;;;;-6.74;100.00;96802.53;1026422;28;20019;-70
2022/12/19 00:42:52;;;;;;;76.47;24.97;;;;;;;-6.78;100.00;96796.06;1027020;28;20022;-70
2022/12/19 00:43:22;;;;;;;76.03;22.38;;;;;;;-6.71;100.00;96812.47;1027174;28;20029;-70
2022/12/19 00:43:54;;;;;;;69.30;23.60;;;;;;;-6.72;100.00;96821.06;1034918;28;20030;-71
2022/12/19 00:44:24;;;;;;;80.07;25.35;;;;;;;-6.75;100.00;96813.69;1034555;28;20034;-70
2022/12/19 00:44:55;;;;;;;81.13;24.63;;;;;;;-6.70;100.00;96814.13;1030358;28;20038;-71
2022/12/19 00:45:25;;;;;;;68.53;23.57;;;;;;;-6.69;100.00;96821.63;1026959;28;20026;-70
2022/12/19 00:45:56;;;;;;;72.30;24.20;;;;;;;-6.69;100.00;96818.28;1029311;28;20093;-71
2022/12/19 00:46:27;;;;;;;79.77;24.20;;;;;;;-6.75;100.00;96806.81;1030454;28;20038;-70
2022/12/19 00:46:57;;;;;;;74.28;24.65;;;;;;;-6.68;100.00;96817.31;1026743;28;20027;-70
2022/12/19 00:47:28;;;;;;;78.73;24.23;;;;;;;-6.69;100.00;96811.41;1029060;28;20106;-70
2022/12/19 00:47:58;;;;;;;81.80;22.70;;;;;;;-6.61;100.00;96812.50;1027357;28;20023;-71
2022/12/19 00:48:29;;;;;;;81.87;24.80;;;;;;;-6.62;100.00;96814.25;1026608;28;20027;-70
2022/12/19 00:49:00;;;;;;;75.22;22.17;;;;;;;-6.69;100.00;96805.50;1035061;28;21004;-71
2022/12/19 00:49:30;;;;;;;74.80;23.03;;;;;;;-6.67;100.00;96809.56;1033254;28;20108;-72
2022/12/19 00:50:01;;;;;;;81.27;25.37;;;;;;;-6.67;100.00;96812.13;1031010;28;20527;-70
2022/12/19 00:50:32;;;;;;;82.25;24.55;;;;;;;-6.61;100.00;96815.88;1028409;28;20034;-71
2022/12/19 00:51:04;;;;;;;78.47;24.40;;;;;;;-6.66;100.00;96802.72;1027781;28;20057;-71
2022/12/19 00:51:35;;;;;;;69.68;23.85;;;;;;;-6.55;100.00;96823.03;1026845;28;20030;-68
2022/12/19 00:52:06;;;;;;;78.57;25.27;;;;;;;-6.70;100.00;96794.50;1031824;28;20081;-71
2022/12/19 00:52:36;;;;;;;75.43;24.30;;;;;;;-6.56;100.00;96821.41;1030225;28;20030;-71
2022/12/19 00:53:07;;;;;;;76.83;22.93;;;;;;;-6.52;100.00;96827.88;1026496;28;20023;-71
2022/12/19 00:53:37;;;;;;;78.43;25.67;;;;;;;-6.46;100.00;96826.56;1021770;29;20020;-71
2022/12/19 00:54:08;;;;;;;77.27;25.17;;;;;;;-6.44;100.00;96824.66;1027396;28;20484;-70
2022/12/19 00:54:38;;;;;;;70.97;23.10;;;;;;;-6.46;100.00;96826.56;1035621;28;20048;-70
2022/12/19 00:55:09;;;;;;;70.60;22.43;;;;;;;-6.59;100.00;96814.00;1026924;28;20522;-70
2022/12/19 00:55:39;;;;;;;72.43;23.90;;;;;;;-6.54;100.00;96824.66;1026047;28;20027;-69
2022/12/19 00:56:12;;;;;;;65.07;22.03;;;;;;;-6.52;100.00;96827.88;1030082;28;20018;-71
2022/12/19 00:56:42;;;;;;;67.40;21.92;;;;;;;-6.53;100.00;96825.47;1030515;28;20054;-72
2022/12/19 00:57:13;;;;;;;75.87;23.40;;;;;;;-6.54;100.00;96834.88;1027026;28;20657;-71
2022/12/19 00:57:43;;;;;;;62.17;22.03;;;;;;;-6.50;100.00;96830.31;1029272;28;20027;-70
2022/12/19 00:58:14;;;;;;;70.93;22.97;;;;;;;-6.53;100.00;96831.38;1034928;28;20098;-71
2022/12/19 00:58:44;;;;;;;65.13;21.37;;;;;;;-6.52;100.00;96827.88;1038824;28;20088;-70
2022/12/19 00:59:14;;;;;;;80.30;22.97;;;;;;;-6.47;100.00;96838.50;1034863;28;20026;-71
2022/12/19 00:59:45;;;;;;;68.97;22.57;;;;;;;-6.45;100.00;96836.63;1026471;28;20496;-69
2022/12/19 01:00:16;;;;;;;71.47;22.60;;;;;;;-6.47;100.00;96835.13;1023014;29;20078;-71
2022/12/19 01:00:46;;;;;;;65.10;21.80;;;;;;;-6.45;100.00;96841.72;1023737;28;20454;-71
2022/12/19 01:01:22;;;;;;;66.57;22.43;;;;;;;-6.49;100.00;96837.81;1025320;28;20103;-70
2022/12/19 01:01:52;;;;;;;75.88;23.00;;;;;;;-6.43;100.00;96842.41;1022763;28;20237;-71
2022/12/19 01:02:23;;;;;;;74.73;24.03;;;;;;;-6.45;100.00;96839.19;1025348;28;20066;-70
2022/12/19 01:02:53;;;;;;;72.57;24.07;;;;;;;-6.40;100.00;96843.91;1028382;28;20023;-71
2022/12/19 01:03:24;;;;;;;69.60;22.67;;;;;;;-6.41;100.00;96835.41;1031953;28;20636;-71
2022/12/19 01:03:56;;;;;;;76.30;23.30;;;;;;;-6.45;100.00;96839.19;1034555;28;20077;-71
2022/12/19 01:04:27;;;;;;;68.47;22.55;;;;;;;-6.48;100.00;96841.97;1028827;28;20057;-71
2022/12/19 01:04:57;;;;;;;64.60;22.10;;;;;;;-6.49;100.00;96837.81;1034612;28;20464;-71
2022/12/19 01:05:28;;;;;;;64.33;21.63;;;;;;;-6.45;100.00;96839.19;1030303;28;20034;-70
2022/12/19 01:05:58;;;;;;;68.83;22.83;;;;;;;-6.47;100.00;96840.22;1034749;28;20447;-70
2022/12/19 01:06:29;;;;;;;62.57;20.57;;;;;;;-6.41;100.00;96844.84;1034505;28;20041;-71
2022/12/19 01:07:00;;;;;;;70.67;22.47;;;;;;;-6.44;100.00;96838.25;1026585;28;20027;-71
2022/12/19 01:07:30;;;;;;;69.45;22.52;;;;;;;-6.40;100.00;96843.91;1026633;28;20050;-71
2022/12/19 01:08:01;;;;;;;60.13;22.13;;;;;;;-6.38;100.00;96843.78;1029361;28;20029;-71
2022/12/19 01:08:31;;;;;;;71.60;23.40;;;;;;;-6.45;100.00;96838.38;1034784;28;20029;-71
2022/12/19 01:09:02;;;;;;;72.13;21.87;;;;;;;-6.37;100.00;96843.66;1030625;28;20431;-71
2022/12/19 01:09:33;;;;;;;73.40;21.27;;;;;;;-6.45;100.00;96839.19;1026247;28;20572;-71
2022/12/19 01:10:04;;;;;;;72.88;23.40;;;;;;;-6.35;100.00;96848.63;1027083;28;20098;-71
2022/12/19 01:10:35;;;;;;;73.50;22.10;;;;;;;-6.31;100.00;96849.97;1031033;28;20030;-70
2022/12/19 01:11:06;;;;;;;70.30;21.93;;;;;;;-6.31;100.00;96844.88;1034758;28;20033;-69
2022/12/19 01:13:15;;;;;;;66.28;21.08;;;;;;;-6.46;100.00;96835.00;1039459;28;20024;-71
2022/12/19 01:13:45;;;;;;;70.47;21.42;;;;;;;-6.45;100.00;96844.28;1033436;28;20026;-70
2022/12/19 01:14:16;;;;;;;67.30;20.20;;;;;;;-6.47;100.00;96835.13;1031050;28;20153;-71
2022/12/19 01:14:47;;;;;;;66.63;21.13;;;;;;;-6.43;100.00;96837.31;1033146;28;20045;-70
2022/12/19 01:15:19;;;;;;;70.73;21.53;;;;;;;-6.43;100.00;96832.22;1035338;28;20463;-70
2022/12/19 01:15:49;;;;;;;64.28;21.02;;;;;;;-6.39;100.00;96834.50;1037836;28;20013;-71
2022/12/19 01:16:20;;;;;;;66.07;23.40;;;;;;;-6.39;100.00;96831.94;1034537;28;20578;-72
2022/12/19 01:16:50;;;;;;;64.23;21.67;;;;;;;-6.42;100.00;96831.25;1038739;28;20029;-69
2022/12/19 01:17:21;;;;;;;68.70;22.87;;;;;;;-6.41;100.00;96837.16;1030761;28;20060;-71
2022/12/19 01:17:52;;;;;;;62.08;22.08;;;;;;;-6.45;100.00;96831.53;1026121;28;20023;-70
2022/12/19 01:18:22;;;;;;;63.60;22.13;;;;;;;-6.46;100.00;96826.56;1030910;28;20391;-71
2022/12/19 01:18:53;;;;;;;68.50;22.63;;;;;;;-6.32;100.00;96838.16;1026429;28;20030;-71
2022/12/19 01:19:25;;;;;;;62.80;21.63;;;;;;;-6.35;100.00;96838.41;1027114;28;20030;-71
2022/12/19 01:19:55;;;;;;;66.63;22.88;;;;;;;-6.32;100.00;96835.59;1026522;28;20655;-71
2022/12/19 01:20:26;;;;;;;67.03;21.43;;;;;;;-6.32;100.00;96838.16;1030807;28;20038;-70
2022/12/19 01:20:58;;;;;;;70.60;22.90;;;;;;;-6.34;100.00;96835.72;1035006;28;20025;-71
2022/12/19 01:21:29;;;;;;;68.05;22.15;;;;;;;-6.32;100.00;96848.38;1026826;28;20027;-70
2022/12/19 01:21:59;;;;;;;72.60;23.00;;;;;;;-6.34;100.00;96835.72;1034442;28;20597;-72
2022/12/19 01:22:29;;;;;;;73.80;23.77;;;;;;;-6.44;100.00;96830.59;1030815;28;20042;-70
2022/12/19 01:23:00;;;;;;;70.47;22.83;;;;;;;-6.40;100.00;96843.91;1030725;28;20030;-71
2022/12/19 01:23:30;;;;;;;66.90;22.70;;;;;;;-6.47;100.00;96843.63;1038805;28;20057;-70
2022/12/19 01:24:02;;;;;;;65.27;23.07;;;;;;;-6.42;100.00;96838.13;1038555;28;20025;-70
2022/12/19 01:24:32;;;;;;;68.88;21.40;;;;;;;-6.41;100.00;96839.72;1034619;28;20030;-70
2022/12/19 01:25:04;;;;;;;69.27;22.97;;;;;;;-6.47;100.00;96832.56;1030981;28;20049;-71
2022/12/19 01:25:35;;;;;;;66.30;23.48;;;;;;;-6.46;100.00;96834.22;1029900;28;20046;-71
2022/12/19 01:26:05;;;;;;;64.93;22.23;;;;;;;-6.43;100.00;96839.88;1042402;28;20016;-70
2022/12/19 01:26:36;;;;;;;68.77;22.93;;;;;;;-6.45;100.00;96828.97;1041014;28;20021;-71
2022/12/19 01:27:07;;;;;;;64.57;21.77;;;;;;;-6.42;100.00;96833.81;1030318;28;20125;-70
2022/12/19 01:27:37;;;;;;;78.77;23.77;;;;;;;-6.39;100.00;96837.06;1022774;28;20396;-71
2022/12/19 01:28:10;;;;;;;70.00;21.37;;;;;;;-6.33;100.00;96839.09;1022850;28;20401;-71
2022/12/19 01:28:41;;;;;;;68.13;22.27;;;;;;;-6.35;100.00;96839.22;1029757;28;20010;-70
2022/12/19 01:29:11;;;;;;;71.37;22.50;;;;;;;-6.37;100.00;96835.16;1026791;28;20472;-71
2022/12/19 01:29:42;;;;;;;68.77;21.93;;;;;;;-6.36;100.00;96826.59;1022979;28;20078;-71
2022/12/19 01:30:12;;;;;;;70.77;22.50;;;;;;;-6.38;100.00;96824.16;1026390;28;20420;-71
2022/12/19 01:30:43;;;;;;;61.37;22.33;;;;;;;-6.34;100.00;96829.81;1034874;28;20066;-71
2022/12/19 01:31:13;;;;;;;63.83;21.27;;;;;;;-6.35;100.00;96831.56;1030384;28;20027;-70
2022/12/19 01:31:44;;;;;;;71.40;22.70;;;;;;;-6.33;100.00;96841.66;1026721;28;20982;-70
2022/12/19 01:32:14;;;;;;;66.83;22.87;;;;;;;-6.36;100.00;96826.59;1030399;28;20018;-70
2022/12/19 01:32:45;;;;;;;67.47;22.00;;;;;;;-6.29;100.00;96837.88;1034487;28;20018;-68
2022/12/19 01:33:16;;;;;;;72.60;22.67;;;;;;;-6.30;100.00;96829.44;1038868;28;20022;-71
2022/12/19 01:33:46;;;;;;;71.43;21.50;;;;;;;-6.25;100.00;96834.13;1034525;28;20427;-71
2022/12/19 01:34:17;;;;;;;68.17;22.13;;;;;;;-6.27;100.00;96833.44;1034500;28;20053;-71
2022/12/19 01:34:47;;;;;;;68.53;22.43;;;;;;;-6.31;100.00;96834.66;1030801;28;20716;-71
2022/12/19 01:35:18;;;;;;;70.03;22.20;;;;;;;-6.30;100.00;96841.41;1034318;28;20032;-71
2022/12/19 01:35:48;;;;;;;67.73;21.90;;;;;;;-6.26;100.00;96842.75;1029943;28;20470;-71
2022/12/19 01:36:18;;;;;;;73.80;22.17;;;;;;;-6.27;100.00;96841.09;1030375;28;20022;-71
2022/12/19 01:36:49;;;;;;;63.73;23.67;;;;;;;-6.24;100.00;96831.44;1025275;28;20388;-70
2022/12/19 01:37:20;;;;;;;65.30;21.97;;;;;;;-6.24;100.00;96840.84;1026087;28;20018;-71
2022/12/19 01:37:50;;;;;;;74.43;23.43;;;;;;;-6.24;100.00;96846.75;1026582;28;20023;-71
2022/12/19 01:38:21;;;;;;;65.80;22.53;;;;;;;-6.33;100.00;96831.44;1034521;28;20854;-71
2022/12/19 01:38:55;;;;;;;64.43;21.57;;;;;;;-6.35;100.00;96839.22;1034660;28;20549;-71
2022/12/19 01:39:25;;;;;;;69.07;22.75;;;;;;;-6.39;100.00;96844.72;1030304;28;20503;-71
2022/12/19 01:39:56;;;;;;;65.43;21.70;;;;;;;-6.36;100.00;96840.16;1030865;28;20058;-70
2022/12/19 01:40:26;;;;;;;66.60;21.87;;;;;;;-6.29;100.00;96838.69;1026224;28;20046;-71
2022/12/19 01:40:56;;;;;;;67.93;22.67;;;;;;;-6.27;100.00;96836.00;1026602;28;20086;-71
2022/12/19 01:41:27;;;;;;;66.27;22.63;;;;;;;-6.31;100.00;96842.31;1030748;28;20431;-71
2022/12/19 01:41:57;;;;;;;66.30;21.97;;;;;;;-6.33;100.00;96844.22;1035392;28;20073;-71
2022/12/19 01:42:35;;;;;;;67.07;21.00;;;;;;;-6.30;100.00;96843.94;1038339;28;20029;-71
2022/12/19 01:43:11;;;;;;;63.92;21.77;;;;;;;-6.30;100.00;96849.06;1031384;28;20088;-70
2022/12/19 01:44:02;;;;;;;63.88;21.70;;;;;;;-6.29;100.00;96848.09;1030371;28;20486;-71
2022/12/19 01:44:32;;;;;;;75.22;23.38;;;;;;;-6.24;100.00;96851.06;1026449;28;20042;-70
2022/12/19 01:45:06;;;;;;;75.30;22.67;;;;;;;-6.25;100.00;96849.44;1026410;28;20050;-72
2022/12/19 01:45:36;;;;;;;69.03;21.95;;;;;;;-6.32;100.00;96851.72;1027519;28;20030;-71
2022/12/19 01:46:09;;;;;;;62.67;21.53;;;;;;;-6.36;100.00;96844.47;1030504;28;20443;-71
2022/12/19 01:46:45;;;;;;;63.97;21.58;;;;;;;-6.33;100.00;96839.09;1026602;28;20496;-70
2022/12/19 01:47:15;;;;;;;61.88;21.52;;;;;;;-6.33;100.00;96836.53;1034362;28;20026;-72
2022/12/19 01:47:50;;;;;;;67.50;21.77;;;;;;;-6.31;100.00;96839.75;1030195;28;20639;-71
2022/12/19 01:48:25;;;;;;;75.30;23.25;;;;;;;-6.34;100.00;96840.00;1026805;28;20180;-71
2022/12/19 01:48:56;;;;;;;69.88;23.45;;;;;;;-6.31;100.00;96834.66;1038442;28;20380;-71
2022/12/19 01:49:30;;;;;;;66.43;22.00;;;;;;;-6.42;100.00;96838.13;1030675;28;20068;-71
2022/12/19 01:50:01;;;;;;;73.75;20.88;;;;;;;-6.36;100.00;96845.25;1034434;28;20136;-71
2022/12/19 01:50:40;;;;;;;65.30;23.10;;;;;;;-6.33;100.00;96849.31;1033898;28;20511;-71
2022/12/19 01:51:15;;;;;;;62.75;21.35;;;;;;;-6.42;100.00;96833.00;1028379;28;20135;-70
2022/12/19 01:51:47;;;;;;;69.75;20.20;;;;;;;-6.35;100.00;96840.97;1027943;28;20170;-71
2022/12/19 01:52:17;;;;;;;72.97;22.88;;;;;;;-6.39;100.00;96831.94;1030952;28;20125;-70
2022/12/19 01:52:48;;;;;;;70.03;22.80;;;;;;;-6.42;100.00;96838.91;1027017;28;20698;-70
2022/12/19 01:53:18;;;;;;;66.00;21.10;;;;;;;-6.53;100.00;96828.00;1030674;28;20027;-70
2022/12/19 01:53:51;;;;;;;70.67;23.07;;;;;;;-6.37;100.00;96845.38;1026815;28;20019;-71
2022/12/19 01:54:24;;;;;;;65.90;21.98;;;;;;;-6.36;100.00;96845.25;1030753;28;20096;-71
2022/12/19 01:54:54;;;;;;;68.05;21.88;;;;;;;-6.38;100.00;96846.31;1030824;28;20038;-70
2022/12/19 01:55:25;;;;;;;67.63;23.07;;;;;;;-6.35;100.00;96848.63;1030316;28;20022;-69
2022/12/19 01:55:55;;;;;;;71.30;23.03;;;;;;;-6.36;100.00;96847.00;1033596;28;20021;-72
2022/12/19 01:56:31;;;;;;;72.50;22.00;;;;;;;-6.42;100.00;96833.00;1034673;28;20030;-70
2022/12/19 01:57:03;;;;;;;78.10;24.23;;;;;;;-6.33;100.00;96847.56;1022389;29;20034;-70
2022/12/19 01:57:34;;;;;;;67.63;22.70;;;;;;;-6.30;100.00;96851.59;1022342;29;20023;-72
2022/12/19 01:58:04;;;;;;;64.07;21.50;;;;;;;-6.36;100.00;96839.34;1026157;28;20039;-71
2022/12/19 01:58:36;;;;;;;63.20;20.70;;;;;;;-6.32;100.00;96849.16;1026419;28;20052;-71
2022/12/19 01:59:09;;;;;;;65.10;21.67;;;;;;;-6.36;100.00;96837.59;1026340;28;20574;-70
2022/12/19 01:59:42;;;;;;;68.32;22.15;;;;;;;-6.36;100.00;96849.56;1030358;28;20108;-71
2022/12/19 02:00:13;;;;;;;73.03;25.42;;;;;;;-6.36;100.00;96852.13;1034409;28;20501;-70
2022/12/19 02:00:44;;;;;;;63.60;21.90;;;;;;;-6.37;100.00;96850.47;1034681;28;20028;-70
2022/12/19 02:01:14;;;;;;;70.83;23.43;;;;;;;-6.42;100.00;96843.22;1023007;28;20136;-72
2022/12/19 02:01:45;;;;;;;69.80;22.27;;;;;;;-6.33;100.00;96846.75;1026460;28;20058;-69
2022/12/19 02:02:33;;;;;;;58.93;22.03;;;;;;;-6.41;100.00;96837.97;1026574;28;20046;-71
2022/12/19 02:03:09;;;;;;;71.65;23.02;;;;;;;-6.38;100.00;96834.34;1026697;28;20025;-71
2022/12/19 02:03:39;;;;;;;73.30;20.88;;;;;;;-6.34;100.00;96843.38;1030259;28;20015;-70
2022/12/19 02:04:10;;;;;;;61.17;20.73;;;;;;;-6.42;100.00;96844.03;1034492;28;20022;-71
2022/12/19 02:04:40;;;;;;;55.50;20.10;;;;;;;-6.42;100.00;96845.78;1026619;28;20010;-71
2022/12/19 02:05:11;;;;;;;62.97;21.40;;;;;;;-6.44;100.00;96850.19;1022481;29;20028;-70
2022/12/19 02:05:41;;;;;;;66.30;21.00;;;;;;;-6.50;100.00;96846.44;1025500;28;20037;-71
2022/12/19 02:06:15;;;;;;;69.93;20.93;;;;;;;-6.52;100.00;96847.50;1032526;28;20472;-70
2022/12/19 02:06:45;;;;;;;62.10;21.92;;;;;;;-6.53;100.00;96841.56;1022146;29;20028;-69
2022/12/19 02:07:16;;;;;;;61.17;21.77;;;;;;;-6.60;100.00;96835.38;1030768;28;20285;-70
2022/12/19 02:07:46;;;;;;;64.47;21.97;;;;;;;-6.62;100.00;96831.31;1034081;28;20014;-71
2022/12/19 02:08:17;;;;;;;60.40;20.97;;;;;;;-6.64;100.00;96828.88;1034340;28;20028;-70
2022/12/19 02:08:47;;;;;;;72.40;21.03;;;;;;;-6.62;100.00;96833.88;1030573;28;20084;-71
2022/12/19 02:09:17;;;;;;;63.47;21.83;;;;;;;-6.67;100.00;96824.06;1030256;28;20094;-70
2022/12/19 02:09:50;;;;;;;63.20;21.40;;;;;;;-6.62;100.00;96831.31;1022066;29;20022;-71
2022/12/19 02:10:20;;;;;;;65.90;21.55;;;;;;;-6.73;100.00;96819.47;1026366;28;20046;-71
2022/12/19 02:10:51;;;;;;;65.57;22.90;;;;;;;-6.65;100.00;96830.63;1029952;28;20029;-71
2022/12/19 02:11:21;;;;;;;71.00;21.80;;;;;;;-6.68;100.00;96825.78;1038613;28;20026;-70
2022/12/19 02:11:51;;;;;;;73.77;24.47;;;;;;;-6.71;100.00;96823.50;1034226;28;20029;-70
2022/12/19 02:12:23;;;;;;;60.43;20.37;;;;;;;-6.68;100.00;96823.22;1030187;28;20026;-71
2022/12/19 02:12:53;;;;;;;71.13;22.35;;;;;;;-6.69;100.00;96829.28;1033939;28;20419;-71
2022/12/19 02:13:24;;;;;;;68.33;23.37;;;;;;;-6.73;100.00;96820.28;1029975;28;20033;-70
2022/12/19 02:13:54;;;;;;;65.40;21.33;;;;;;;-6.69;100.00;96826.72;1034536;28;20044;-71
2022/12/19 02:14:25;;;;;;;65.23;21.10;;;;;;;-6.68;100.00;96827.53;1026418;28;20018;-69
2022/12/19 02:14:55;;;;;;;64.87;22.20;;;;;;;-6.66;100.00;96835.88;1026109;28;20452;-70
2022/12/19 02:15:26;;;;;;;66.93;22.13;;;;;;;-6.78;100.00;96842.00;1026573;28;20011;-69
2022/12/19 02:16:25;;;;;;;67.70;21.73;;;;;;;-6.81;100.00;96829.50;1021888;28;20393;-69
2022/12/19 02:17:04;;;;;;;61.78;21.45;;;;;;;-6.80;100.00;96826.81;1030526;28;20010;-70
2022/12/19 02:17:39;;;;;;;66.10;21.27;;;;;;;-6.83;100.00;96828.81;1032132;28;20187;-71
2022/12/19 02:18:12;;;;;;;59.72;21.33;;;;;;;-6.86;100.00;96818.88;1034418;28;20018;-71
2022/12/19 02:18:55;;;;;;;59.95;19.55;;;;;;;-6.85;100.00;96816.19;1031659;28;20065;-71
2022/12/19 02:19:34;;;;;;;61.13;20.13;;;;;;;-6.89;100.00;96820.72;1034853;28;20469;-70
2022/12/19 02:20:19;;;;;;;67.40;22.23;;;;;;;-6.89;100.00;96815.63;1037420;28;20482;-68
2022/12/19 02:21:13;;;;;;;70.13;20.23;;;;;;;-6.92;100.00;96799.78;1043180;28;20029;-70
2022/12/19 02:21:50;;;;;;;57.78;19.52;;;;;;;-6.93;100.00;96804.06;1035279;28;20021;-71
2022/12/19 02:22:42;;;;;;;64.43;21.45;;;;;;;-6.89;100.00;96805.44;1031042;28;20029;-71
2022/12/19 02:23:31;;;;;;;54.67;19.08;;;;;;;-6.85;100.00;96810.28;1033709;28;20034;-70
2022/12/19 02:24:28;;;;;;;59.60;19.48;;;;;;;-6.91;100.00;96807.31;1032428;28;20496;-70
2022/12/19 02:25:12;;;;;;;60.97;20.92;;;;;;;-6.91;100.00;96802.22;1035707;28;20069;-71
2022/12/19 02:26:00;;;;;;;59.17;18.98;;;;;;;-6.94;100.00;96801.63;1033843;28;20032;-72
2022/12/19 02:27:09;;;;;;;67.60;21.33;;;;;;;-6.95;100.00;96805.13;1033299;28;20022;-70
2022/12/19 02:27:52;;;;;;;59.78;20.30;;;;;;;-6.94;100.00;96805.03;1027325;28;20113;-70
2022/12/19 02:28:48;;;;;;;55.53;19.85;;;;;;;-6.96;100.00;96804.31;1031202;28;20077;-71
2022/12/19 02:29:40;;;;;;;60.78;21.05;;;;;;;-6.94;100.00;96816.94;1031935;28;20042;-70